KAL1213 RKPK-RKSS
Flight info
| Callsign | KAL1213 |
|---|---|
| Flight time | 0h 43m |
| Altitude | 22000 |
| Route | PSN Y782 BITUX Z53 BASEM Y685 GUKDO |
| Aircraft | B77W/H-SDE1E2E3FGHIJ2J3J4J5M1RWXY/LB1D1 |
Departure
| Time | 2026-05-05 16:37 |
|---|---|
| Airport | Gimhae International Airport (RKPK) |
Arrival
| Time | 2026-05-05 17:21 |
|---|---|
| Airport | Gimpo International Airport (RKSS) |
| Time | Latitude | Longitude | Altitude | Speed | Heading |
|---|---|---|---|---|---|
| 2026-05-05 16:17 | 35.17361 | 128.94389 | 28 ft | 0 kts | 264° |
| 2026-05-05 16:22 | 35.17361 | 128.94394 | 28 ft | 3 kts | 264° |
| 2026-05-05 16:23 | 35.17363 | 128.94415 | 28 ft | 0 kts | 267° |
| 2026-05-05 16:25 | 35.17364 | 128.94423 | 28 ft | 4 kts | 274° |
| 2026-05-05 16:25 | 35.17343 | 128.94461 | 28 ft | 4 kts | 347° |
| 2026-05-05 16:25 | 35.17317 | 128.94465 | 28 ft | 4 kts | 356° |
| 2026-05-05 16:26 | 35.17302 | 128.94466 | 28 ft | 0 kts | 354° |
| 2026-05-05 16:29 | 35.17310 | 128.94465 | 28 ft | 5 kts | 354° |
| 2026-05-05 16:29 | 35.17390 | 128.94455 | 28 ft | 10 kts | 354° |
| 2026-05-05 16:29 | 35.17442 | 128.94449 | 28 ft | 8 kts | 351° |
| 2026-05-05 16:29 | 35.17459 | 128.94427 | 28 ft | 5 kts | 296° |
| 2026-05-05 16:30 | 35.17465 | 128.94347 | 28 ft | 11 kts | 267° |
| 2026-05-05 16:30 | 35.17468 | 128.94303 | 28 ft | 4 kts | 285° |
| 2026-05-05 16:30 | 35.17492 | 128.94266 | 28 ft | 8 kts | 322° |
| 2026-05-05 16:30 | 35.17561 | 128.94246 | 28 ft | 12 kts | 354° |
| 2026-05-05 16:31 | 35.17645 | 128.94235 | 28 ft | 12 kts | 354° |
| 2026-05-05 16:31 | 35.17731 | 128.94223 | 28 ft | 13 kts | 354° |
| 2026-05-05 16:31 | 35.17822 | 128.94212 | 28 ft | 11 kts | 354° |
| 2026-05-05 16:31 | 35.17898 | 128.94202 | 28 ft | 11 kts | 354° |
| 2026-05-05 16:32 | 35.17980 | 128.94192 | 28 ft | 12 kts | 354° |
| 2026-05-05 16:32 | 35.18066 | 128.94182 | 28 ft | 13 kts | 354° |
| 2026-05-05 16:32 | 35.18154 | 128.94172 | 28 ft | 13 kts | 355° |
| 2026-05-05 16:32 | 35.18248 | 128.94160 | 28 ft | 14 kts | 353° |
| 2026-05-05 16:33 | 35.18347 | 128.94146 | 28 ft | 15 kts | 353° |
| 2026-05-05 16:33 | 35.18448 | 128.94131 | 28 ft | 15 kts | 353° |
| 2026-05-05 16:33 | 35.18553 | 128.94116 | 28 ft | 15 kts | 353° |
| 2026-05-05 16:33 | 35.18676 | 128.94099 | 28 ft | 21 kts | 353° |
| 2026-05-05 16:34 | 35.18826 | 128.94081 | 28 ft | 21 kts | 355° |
| 2026-05-05 16:34 | 35.18973 | 128.94063 | 28 ft | 21 kts | 354° |
| 2026-05-05 16:34 | 35.19118 | 128.94043 | 28 ft | 21 kts | 352° |
| 2026-05-05 16:34 | 35.19215 | 128.94026 | 28 ft | 11 kts | 353° |
| 2026-05-05 16:35 | 35.19297 | 128.94016 | 27 ft | 12 kts | 355° |
| 2026-05-05 16:35 | 35.19356 | 128.94010 | 28 ft | 9 kts | 352° |
| 2026-05-05 16:35 | 35.19402 | 128.93968 | 28 ft | 9 kts | 296° |
| 2026-05-05 16:35 | 35.19401 | 128.93892 | 28 ft | 10 kts | 264° |
| 2026-05-05 16:36 | 35.19393 | 128.93801 | 27 ft | 13 kts | 264° |
| 2026-05-05 16:36 | 35.19383 | 128.93678 | 28 ft | 13 kts | 264° |
| 2026-05-05 16:36 | 35.19371 | 128.93569 | 29 ft | 10 kts | 252° |
| 2026-05-05 16:36 | 35.19339 | 128.93525 | 29 ft | 7 kts | 204° |
| 2026-05-05 16:37 | 35.19268 | 128.93528 | 29 ft | 22 kts | 175° |
| 2026-05-05 16:37 | 35.18887 | 128.93576 | 31 ft | 109 kts | 174° |
| 2026-05-05 16:37 | 35.17729 | 128.93725 | 277 ft | 206 kts | 173° |
| 2026-05-05 16:37 | 35.16356 | 128.93904 | 2214 ft | 194 kts | 173° |
| 2026-05-05 16:38 | 35.15069 | 128.94054 | 3829 ft | 182 kts | 173° |
| 2026-05-05 16:38 | 35.13733 | 128.94179 | 4459 ft | 206 kts | 175° |
| 2026-05-05 16:38 | 35.12214 | 128.94218 | 4949 ft | 229 kts | 179° |
| 2026-05-05 16:38 | 35.10624 | 128.94241 | 4989 ft | 232 kts | 181° |
| 2026-05-05 16:39 | 35.09014 | 128.94280 | 5180 ft | 235 kts | 180° |
| 2026-05-05 16:39 | 35.07368 | 128.94337 | 6099 ft | 238 kts | 180° |
| 2026-05-05 16:39 | 35.05706 | 128.94402 | 7238 ft | 241 kts | 180° |
| 2026-05-05 16:39 | 35.04019 | 128.94477 | 8288 ft | 246 kts | 180° |
| 2026-05-05 16:40 | 35.02285 | 128.94554 | 9271 ft | 253 kts | 180° |
| 2026-05-05 16:40 | 35.00513 | 128.94657 | 10276 ft | 255 kts | 174° |
| 2026-05-05 16:40 | 34.98856 | 128.95488 | 11155 ft | 265 kts | 145° |
| 2026-05-05 16:40 | 34.97440 | 128.96900 | 12033 ft | 270 kts | 144° |
| 2026-05-05 16:41 | 34.95970 | 128.98356 | 13021 ft | 273 kts | 144° |
| 2026-05-05 16:41 | 34.94482 | 128.99817 | 14018 ft | 276 kts | 144° |
| 2026-05-05 16:41 | 34.93153 | 129.01532 | 14835 ft | 288 kts | 122° |
| 2026-05-05 16:41 | 34.92562 | 129.03905 | 15703 ft | 301 kts | 95° |
| 2026-05-05 16:42 | 34.92970 | 129.06431 | 16587 ft | 312 kts | 64° |
| 2026-05-05 16:42 | 34.94211 | 129.08609 | 17433 ft | 317 kts | 52° |
| 2026-05-05 16:42 | 34.95793 | 129.10495 | 18144 ft | 324 kts | 30° |
| 2026-05-05 16:42 | 34.97886 | 129.11446 | 18591 ft | 332 kts | 6° |
| 2026-05-05 16:43 | 35.00218 | 129.11235 | 18476 ft | 352 kts | 337° |
| 2026-05-05 16:43 | 35.02427 | 129.09735 | 18472 ft | 379 kts | 320° |
| 2026-05-05 16:43 | 35.04566 | 129.07634 | 18444 ft | 407 kts | 317° |
| 2026-05-05 16:43 | 35.06751 | 129.05394 | 18382 ft | 412 kts | 317° |
| 2026-05-05 16:44 | 35.08969 | 129.03166 | 18336 ft | 413 kts | 318° |
| 2026-05-05 16:44 | 35.11175 | 129.00994 | 18331 ft | 411 kts | 318° |
| 2026-05-05 16:44 | 35.13531 | 128.98950 | 18334 ft | 412 kts | 327° |
| 2026-05-05 16:44 | 35.16063 | 128.97389 | 18333 ft | 414 kts | 332° |
| 2026-05-05 16:45 | 35.18685 | 128.95926 | 18331 ft | 414 kts | 333° |
| 2026-05-05 16:45 | 35.21307 | 128.94472 | 18333 ft | 414 kts | 333° |
| 2026-05-05 16:45 | 35.23924 | 128.92994 | 18335 ft | 415 kts | 332° |
| 2026-05-05 16:45 | 35.26538 | 128.91486 | 18341 ft | 415 kts | 332° |
| 2026-05-05 16:46 | 35.29114 | 128.89977 | 18331 ft | 416 kts | 332° |
| 2026-05-05 16:46 | 35.31749 | 128.88421 | 18332 ft | 416 kts | 332° |
| 2026-05-05 16:46 | 35.34332 | 128.86891 | 18334 ft | 416 kts | 332° |
| 2026-05-05 16:46 | 35.36935 | 128.85346 | 18340 ft | 416 kts | 331° |
| 2026-05-05 16:47 | 35.39541 | 128.83798 | 18344 ft | 416 kts | 331° |
| 2026-05-05 16:47 | 35.42152 | 128.82246 | 18348 ft | 416 kts | 332° |
| 2026-05-05 16:47 | 35.44750 | 128.80703 | 18350 ft | 416 kts | 332° |
| 2026-05-05 16:47 | 35.47347 | 128.79160 | 18356 ft | 415 kts | 332° |
| 2026-05-05 16:48 | 35.49941 | 128.77617 | 18360 ft | 415 kts | 332° |
| 2026-05-05 16:48 | 35.52510 | 128.76089 | 18364 ft | 414 kts | 332° |
| 2026-05-05 16:48 | 35.55096 | 128.74550 | 18371 ft | 413 kts | 332° |
| 2026-05-05 16:48 | 35.57690 | 128.73009 | 18379 ft | 413 kts | 332° |
| 2026-05-05 16:49 | 35.60271 | 128.71475 | 18372 ft | 413 kts | 332° |
| 2026-05-05 16:49 | 35.62861 | 128.69934 | 18373 ft | 414 kts | 332° |
| 2026-05-05 16:49 | 35.65457 | 128.68388 | 18374 ft | 414 kts | 332° |
| 2026-05-05 16:49 | 35.68036 | 128.66851 | 18371 ft | 413 kts | 332° |
| 2026-05-05 16:50 | 35.70596 | 128.65323 | 18376 ft | 413 kts | 332° |
| 2026-05-05 16:50 | 35.73182 | 128.63777 | 18375 ft | 413 kts | 332° |
| 2026-05-05 16:50 | 35.75768 | 128.62231 | 18356 ft | 413 kts | 332° |
| 2026-05-05 16:50 | 35.78343 | 128.60674 | 18348 ft | 412 kts | 330° |
| 2026-05-05 16:51 | 35.80793 | 128.58834 | 18333 ft | 411 kts | 323° |
| 2026-05-05 16:51 | 35.83058 | 128.56711 | 18318 ft | 409 kts | 317° |
| 2026-05-05 16:51 | 35.85128 | 128.54332 | 18318 ft | 407 kts | 314° |
| 2026-05-05 16:51 | 35.87163 | 128.51895 | 18311 ft | 407 kts | 313° |
| 2026-05-05 16:52 | 35.89160 | 128.49485 | 18309 ft | 407 kts | 313° |
| 2026-05-05 16:52 | 35.91192 | 128.47037 | 18666 ft | 411 kts | 313° |
| 2026-05-05 16:52 | 35.93249 | 128.44564 | 19642 ft | 415 kts | 314° |
| 2026-05-05 16:52 | 35.95320 | 128.42083 | 20738 ft | 414 kts | 314° |
| 2026-05-05 16:53 | 35.97395 | 128.39604 | 21689 ft | 414 kts | 313° |
| 2026-05-05 16:53 | 35.99457 | 128.37143 | 22102 ft | 411 kts | 313° |
| 2026-05-05 16:53 | 36.01515 | 128.34686 | 22072 ft | 411 kts | 313° |
| 2026-05-05 16:53 | 36.03568 | 128.32231 | 22073 ft | 412 kts | 313° |
| 2026-05-05 16:54 | 36.05627 | 128.29768 | 22064 ft | 412 kts | 313° |
| 2026-05-05 16:54 | 36.07666 | 128.27327 | 22074 ft | 412 kts | 313° |
| 2026-05-05 16:54 | 36.09719 | 128.24865 | 22055 ft | 413 kts | 313° |
| 2026-05-05 16:54 | 36.11781 | 128.22393 | 22053 ft | 413 kts | 313° |
| 2026-05-05 16:55 | 36.13844 | 128.19920 | 22063 ft | 413 kts | 313° |
| 2026-05-05 16:55 | 36.15911 | 128.17440 | 22059 ft | 413 kts | 313° |
| 2026-05-05 16:55 | 36.17975 | 128.14958 | 22064 ft | 413 kts | 313° |
| 2026-05-05 16:55 | 36.20028 | 128.12489 | 22072 ft | 412 kts | 313° |
| 2026-05-05 16:56 | 36.22055 | 128.10049 | 22079 ft | 412 kts | 313° |
| 2026-05-05 16:56 | 36.24109 | 128.07577 | 22084 ft | 412 kts | 313° |
| 2026-05-05 16:56 | 36.26263 | 128.05161 | 22092 ft | 428 kts | 321° |
| 2026-05-05 16:56 | 36.28900 | 128.03285 | 22112 ft | 452 kts | 335° |
| 2026-05-05 16:57 | 36.31958 | 128.02200 | 22100 ft | 460 kts | 349° |
| 2026-05-05 16:57 | 36.35161 | 128.01759 | 22093 ft | 465 kts | 353° |
| 2026-05-05 16:57 | 36.38374 | 128.01413 | 22098 ft | 464 kts | 353° |
| 2026-05-05 16:57 | 36.41598 | 128.01054 | 22101 ft | 464 kts | 353° |
| 2026-05-05 16:58 | 36.44767 | 128.00663 | 22104 ft | 463 kts | 352° |
| 2026-05-05 16:58 | 36.47961 | 128.00236 | 22104 ft | 463 kts | 352° |
| 2026-05-05 16:58 | 36.51167 | 127.99790 | 22105 ft | 463 kts | 352° |
| 2026-05-05 16:58 | 36.54356 | 127.99344 | 22115 ft | 462 kts | 352° |
| 2026-05-05 16:59 | 36.57559 | 127.98899 | 22116 ft | 462 kts | 352° |
| 2026-05-05 16:59 | 36.60758 | 127.98469 | 22104 ft | 462 kts | 352° |
| 2026-05-05 16:59 | 36.63947 | 127.98045 | 22105 ft | 461 kts | 352° |
| 2026-05-05 16:59 | 36.67095 | 127.97625 | 22109 ft | 461 kts | 352° |
| 2026-05-05 17:00 | 36.70273 | 127.97201 | 22115 ft | 460 kts | 352° |
| 2026-05-05 17:00 | 36.73461 | 127.96773 | 22112 ft | 460 kts | 352° |
| 2026-05-05 17:00 | 36.76651 | 127.96344 | 22110 ft | 460 kts | 352° |
| 2026-05-05 17:00 | 36.79819 | 127.95908 | 22106 ft | 456 kts | 351° |
| 2026-05-05 17:01 | 36.82864 | 127.94872 | 22105 ft | 453 kts | 334° |
| 2026-05-05 17:01 | 36.85514 | 127.92792 | 22110 ft | 452 kts | 319° |
| 2026-05-05 17:01 | 36.87617 | 127.89955 | 22104 ft | 451 kts | 304° |
| 2026-05-05 17:01 | 36.89336 | 127.86688 | 22109 ft | 452 kts | 302° |
| 2026-05-05 17:02 | 36.91074 | 127.83413 | 22106 ft | 453 kts | 303° |
| 2026-05-05 17:02 | 36.92869 | 127.80162 | 22109 ft | 453 kts | 303° |
| 2026-05-05 17:02 | 36.94687 | 127.76938 | 22112 ft | 454 kts | 304° |
| 2026-05-05 17:02 | 36.96513 | 127.73725 | 22109 ft | 454 kts | 304° |
| 2026-05-05 17:03 | 36.98334 | 127.70512 | 22112 ft | 454 kts | 304° |
| 2026-05-05 17:03 | 37.00160 | 127.67278 | 22102 ft | 453 kts | 304° |
| 2026-05-05 17:03 | 37.02142 | 127.64269 | 21536 ft | 446 kts | 317° |
| 2026-05-05 17:03 | 37.04722 | 127.62171 | 20865 ft | 442 kts | 334° |
| 2026-05-05 17:04 | 37.07510 | 127.60676 | 20009 ft | 441 kts | 336° |
| 2026-05-05 17:04 | 37.10304 | 127.59126 | 19259 ft | 439 kts | 334° |
| 2026-05-05 17:04 | 37.13056 | 127.57523 | 18608 ft | 433 kts | 334° |
| 2026-05-05 17:04 | 37.15737 | 127.55879 | 17916 ft | 423 kts | 330° |
| 2026-05-05 17:05 | 37.18027 | 127.53608 | 17075 ft | 422 kts | 310° |
| 2026-05-05 17:05 | 37.19688 | 127.50626 | 16269 ft | 414 kts | 301° |
| 2026-05-05 17:05 | 37.21278 | 127.47594 | 15441 ft | 415 kts | 303° |
| 2026-05-05 17:05 | 37.22906 | 127.44631 | 14824 ft | 410 kts | 304° |
| 2026-05-05 17:06 | 37.24530 | 127.41720 | 14233 ft | 405 kts | 304° |
| 2026-05-05 17:06 | 37.26117 | 127.38871 | 13608 ft | 402 kts | 304° |
| 2026-05-05 17:06 | 37.27702 | 127.36025 | 13007 ft | 387 kts | 304° |
| 2026-05-05 17:06 | 37.29178 | 127.33366 | 12452 ft | 357 kts | 303° |
| 2026-05-05 17:07 | 37.30563 | 127.30861 | 12219 ft | 349 kts | 303° |
| 2026-05-05 17:07 | 37.31967 | 127.28323 | 12113 ft | 354 kts | 303° |
| 2026-05-05 17:07 | 37.33358 | 127.25807 | 12010 ft | 347 kts | 303° |
| 2026-05-05 17:07 | 37.34716 | 127.23348 | 12000 ft | 341 kts | 303° |
| 2026-05-05 17:08 | 37.36044 | 127.20880 | 11981 ft | 339 kts | 298° |
| 2026-05-05 17:08 | 37.36892 | 127.18139 | 11755 ft | 344 kts | 282° |
| 2026-05-05 17:08 | 37.37395 | 127.15190 | 11447 ft | 345 kts | 280° |
| 2026-05-05 17:08 | 37.37881 | 127.12263 | 11146 ft | 340 kts | 281° |
| 2026-05-05 17:09 | 37.38375 | 127.09371 | 10808 ft | 335 kts | 281° |
| 2026-05-05 17:09 | 37.38874 | 127.06542 | 10482 ft | 329 kts | 281° |
| 2026-05-05 17:09 | 37.39373 | 127.03764 | 10177 ft | 323 kts | 281° |
| 2026-05-05 17:09 | 37.39869 | 127.01031 | 9913 ft | 317 kts | 282° |
| 2026-05-05 17:10 | 37.40349 | 126.98401 | 9783 ft | 308 kts | 282° |
| 2026-05-05 17:10 | 37.40825 | 126.95792 | 9734 ft | 301 kts | 282° |
| 2026-05-05 17:10 | 37.41278 | 126.93321 | 9440 ft | 279 kts | 282° |
| 2026-05-05 17:10 | 37.41878 | 126.91071 | 8967 ft | 266 kts | 291° |
| 2026-05-05 17:11 | 37.42640 | 126.88995 | 8721 ft | 259 kts | 293° |
| 2026-05-05 17:11 | 37.43419 | 126.86898 | 8555 ft | 270 kts | 292° |
| 2026-05-05 17:11 | 37.44197 | 126.84736 | 8377 ft | 270 kts | 292° |
| 2026-05-05 17:11 | 37.45019 | 126.82423 | 8170 ft | 266 kts | 291° |
| 2026-05-05 17:12 | 37.45759 | 126.80324 | 7988 ft | 260 kts | 291° |
| 2026-05-05 17:12 | 37.46532 | 126.78218 | 7465 ft | 269 kts | 293° |
| 2026-05-05 17:12 | 37.47336 | 126.76115 | 7133 ft | 270 kts | 293° |
| 2026-05-05 17:12 | 37.48151 | 126.74003 | 6896 ft | 268 kts | 293° |
| 2026-05-05 17:13 | 37.48956 | 126.71891 | 6657 ft | 265 kts | 293° |
| 2026-05-05 17:13 | 37.49746 | 126.69810 | 6407 ft | 262 kts | 293° |
| 2026-05-05 17:13 | 37.50529 | 126.67755 | 6175 ft | 259 kts | 292° |
| 2026-05-05 17:13 | 37.51299 | 126.65720 | 5938 ft | 256 kts | 292° |
| 2026-05-05 17:14 | 37.52065 | 126.63702 | 5713 ft | 254 kts | 292° |
| 2026-05-05 17:14 | 37.52562 | 126.62378 | 5561 ft | 252 kts | 292° |
| 2026-05-05 17:14 | 37.53553 | 126.59736 | 5252 ft | 251 kts | 292° |
| 2026-05-05 17:14 | 37.54295 | 126.57768 | 5013 ft | 248 kts | 292° |
| 2026-05-05 17:15 | 37.55054 | 126.55829 | 4788 ft | 243 kts | 299° |
| 2026-05-05 17:15 | 37.56274 | 126.54357 | 4579 ft | 253 kts | 329° |
| 2026-05-05 17:15 | 37.57984 | 126.53810 | 4408 ft | 257 kts | 358° |
| 2026-05-05 17:15 | 37.59686 | 126.54374 | 4128 ft | 250 kts | 30° |
| 2026-05-05 17:16 | 37.60974 | 126.55768 | 3919 ft | 243 kts | 45° |
| 2026-05-05 17:16 | 37.61758 | 126.56771 | 3908 ft | 244 kts | 45° |
| 2026-05-05 17:16 | 37.62947 | 126.58272 | 3585 ft | 237 kts | 45° |
| 2026-05-05 17:16 | 37.64418 | 126.60115 | 3298 ft | 214 kts | 45° |
| 2026-05-05 17:17 | 37.65437 | 126.61397 | 3160 ft | 206 kts | 45° |
| 2026-05-05 17:17 | 37.66314 | 126.62802 | 2914 ft | 201 kts | 70° |
| 2026-05-05 17:17 | 37.66473 | 126.63949 | 2777 ft | 194 kts | 98° |
| 2026-05-05 17:17 | 37.65995 | 126.65460 | 2613 ft | 188 kts | 128° |
| 2026-05-05 17:18 | 37.65173 | 126.66763 | 2350 ft | 192 kts | 131° |
| 2026-05-05 17:18 | 37.64364 | 126.68059 | 2087 ft | 184 kts | 132° |
| 2026-05-05 17:18 | 37.63511 | 126.69165 | 1860 ft | 174 kts | 139° |
| 2026-05-05 17:18 | 37.62361 | 126.70582 | 1554 ft | 177 kts | 136° |
| 2026-05-05 17:19 | 37.61512 | 126.71650 | 1340 ft | 168 kts | 135° |
| 2026-05-05 17:19 | 37.60746 | 126.72623 | 1152 ft | 147 kts | 134° |
| 2026-05-05 17:19 | 37.60281 | 126.73207 | 1013 ft | 137 kts | 135° |
| 2026-05-05 17:19 | 37.59618 | 126.74045 | 827 ft | 130 kts | 135° |
| 2026-05-05 17:20 | 37.58754 | 126.75133 | 623 ft | 135 kts | 134° |
| 2026-05-05 17:20 | 37.58317 | 126.75684 | 482 ft | 133 kts | 134° |
| 2026-05-05 17:20 | 37.57666 | 126.76506 | 317 ft | 133 kts | 134° |
| 2026-05-05 17:20 | 37.57009 | 126.77336 | 150 ft | 134 kts | 135° |
| 2026-05-05 17:21 | 37.56355 | 126.78148 | 60 ft | 124 kts | 134° |
| 2026-05-05 17:21 | 37.55826 | 126.78814 | 56 ft | 87 kts | 135° |
| 2026-05-05 17:21 | 37.55504 | 126.79222 | 67 ft | 45 kts | 135° |
| 2026-05-05 17:22 | 37.55274 | 126.79513 | 56 ft | 20 kts | 135° |
| 2026-05-05 17:22 | 37.55175 | 126.79639 | 55 ft | 20 kts | 135° |
| 2026-05-05 17:22 | 37.55075 | 126.79764 | 54 ft | 20 kts | 135° |
| 2026-05-05 17:22 | 37.54976 | 126.79890 | 55 ft | 20 kts | 135° |
| 2026-05-05 17:23 | 37.54888 | 126.80001 | 55 ft | 8 kts | 135° |
| 2026-05-05 17:23 | 37.54849 | 126.80052 | 57 ft | 8 kts | 132° |
| 2026-05-05 17:23 | 37.54837 | 126.80120 | 63 ft | 8 kts | 75° |
| 2026-05-05 17:23 | 37.54873 | 126.80176 | 68 ft | 8 kts | 47° |
| 2026-05-05 17:24 | 37.54910 | 126.80227 | 70 ft | 7 kts | 46° |
| 2026-05-05 17:24 | 37.54914 | 126.80232 | 70 ft | 0 kts | 46° |
| 2026-05-05 17:25 | 37.54949 | 126.80277 | 60 ft | 15 kts | 45° |
| 2026-05-05 17:26 | 37.55006 | 126.80347 | 63 ft | 16 kts | 45° |
| 2026-05-05 17:26 | 37.55063 | 126.80419 | 67 ft | 16 kts | 45° |
| 2026-05-05 17:26 | 37.55130 | 126.80503 | 61 ft | 8 kts | 46° |
| 2026-05-05 17:26 | 37.55181 | 126.80494 | 66 ft | 16 kts | 323° |
| 2026-05-05 17:27 | 37.55259 | 126.80400 | 63 ft | 16 kts | 315° |
| 2026-05-05 17:27 | 37.55316 | 126.80329 | 67 ft | 16 kts | 314° |
| 2026-05-05 17:27 | 37.55389 | 126.80230 | 62 ft | 16 kts | 313° |
| 2026-05-05 17:27 | 37.55435 | 126.80178 | 62 ft | 8 kts | 330° |
| 2026-05-05 17:28 | 37.55497 | 126.80211 | 64 ft | 11 kts | 46° |
| 2026-05-05 17:28 | 37.55541 | 126.80268 | 71 ft | 5 kts | 45° |
| 2026-05-05 17:28 | 37.55584 | 126.80313 | 72 ft | 8 kts | 19° |
| 2026-05-05 17:28 | 37.55629 | 126.80293 | 64 ft | 3 kts | 321° |
| 2026-05-05 17:29 | 37.55668 | 126.80252 | 61 ft | 9 kts | 347° |
| 2026-05-05 17:29 | 37.55711 | 126.80274 | 64 ft | 10 kts | 38° |
| 2026-05-05 17:29 | 37.55745 | 126.80313 | 72 ft | 7 kts | 44° |
| 2026-05-05 17:29 | 37.55764 | 126.80336 | 72 ft | 0 kts | 44° |